Terminal Aerodrome Forecast
Issued by NWS Shreveport, LA

Home | Current Version | Previous Version | Text Only | Print | Product List | Glossary On
Versions: 1 2 3 4 5 6 7 8 9 10 11 12 13 14 15 16 17
000
FTUS44 KSHV 302320
TAFLFK
TAF
KLFK 302320Z 3100/3124 17005KT P6SM VCSH SCT050 SCT150 SCT250
      TEMPO 3109/3113 2SM BR BKN005
     FM311800 17005KT P6SM SCT015 SCT250
     FM312100 19006KT P6SM SCT035 SCT250=

USA.gov is the U.S. government's official web portal to all federal, state and local government web resources and services.